createdAt,value
2022-09-20T00:00:14.055Z,98680.28
2022-09-20T00:02:43.605Z,98681.44
2022-09-20T00:05:12.689Z,98680.13
2022-09-20T00:07:41.432Z,98682.56
2022-09-20T00:10:10.589Z,98684.69
2022-09-20T00:12:39.488Z,98686.34
2022-09-20T00:15:11.828Z,98679.81
2022-09-20T00:17:40.303Z,98683.75
2022-09-20T00:20:11.221Z,98679.31
2022-09-20T00:22:39.776Z,98683.75
2022-09-20T00:25:10.445Z,98680.81
2022-09-20T00:27:39.210Z,98687.00
2022-09-20T00:30:11.960Z,98680.53
2022-09-20T00:32:40.761Z,98678.72
2022-09-20T00:35:10.835Z,98681.16
2022-09-20T00:37:42.002Z,98678.53
2022-09-20T00:40:14.723Z,98677.25
2022-09-20T00:42:44.482Z,98679.88
2022-09-20T00:45:23.284Z,98676.25
2022-09-20T00:47:58.327Z,98675.28
2022-09-20T00:50:38.611Z,98682.81
2022-09-20T00:53:14.773Z,98683.78
2022-09-20T00:55:49.063Z,98686.56
2022-09-20T00:58:20.080Z,98684.94
2022-09-20T01:00:53.981Z,98684.25
2022-09-20T01:03:25.987Z,98690.63
2022-09-20T01:05:57.295Z,98684.44
2022-09-20T01:08:26.541Z,98681.16
2022-09-20T01:10:56.589Z,98681.34
2022-09-20T01:13:25.346Z,98675.00
2022-09-20T01:15:59.069Z,98670.41
2022-09-20T01:18:30.118Z,98680.69
2022-09-20T01:21:01.161Z,98678.91
2022-09-20T01:23:53.904Z,98672.34
2022-09-20T01:27:12.442Z,98667.47
2022-09-20T01:30:06.854Z,98673.81
2022-09-20T01:32:59.934Z,98679.22
2022-09-20T01:35:30.492Z,98683.44
2022-09-20T01:38:20.642Z,98675.59
2022-09-20T01:41:06.802Z,98681.13
2022-09-20T01:43:46.267Z,98674.00
2022-09-20T01:46:31.133Z,98667.78
2022-09-20T01:49:19.345Z,98679.16
2022-09-20T01:52:45.106Z,98680.47
2022-09-20T01:55:50.863Z,98677.22
2022-09-20T01:59:23.733Z,98677.03
2022-09-20T02:02:23.124Z,98685.69
2022-09-20T02:05:40.636Z,98690.88
2022-09-20T02:08:57.432Z,98686.34
2022-09-20T02:11:41.773Z,98694.28
2022-09-20T02:14:37.937Z,98692.84
2022-09-20T02:17:25.819Z,98695.59
2022-09-20T02:20:17.812Z,98700.94
2022-09-20T02:23:18.541Z,98706.84
2022-09-20T02:26:30.484Z,98704.88
2022-09-20T02:29:13.088Z,98697.19
2022-09-20T02:32:45.248Z,98694.41
2022-09-20T02:35:42.160Z,98694.25
2022-09-20T02:38:36.786Z,98690.34
2022-09-20T02:41:59.706Z,98697.00
2022-09-20T02:44:59.728Z,98692.59
2022-09-20T02:47:38.185Z,98692.75
2022-09-20T02:50:41.286Z,98694.59
2022-09-20T02:53:38.288Z,98693.44
2022-09-20T02:56:20.576Z,98697.38
2022-09-20T02:58:58.845Z,98689.53
2022-09-20T03:01:46.435Z,98692.16
2022-09-20T03:04:36.891Z,98689.88
2022-09-20T03:07:21.233Z,98702.91
2022-09-20T03:10:07.127Z,98705.19
2022-09-20T03:12:59.116Z,98705.84
2022-09-20T03:15:42.395Z,98702.13
2022-09-20T03:18:17.864Z,98695.75
2022-09-20T03:21:00.568Z,98697.41
2022-09-20T03:23:51.462Z,98691.88
2022-09-20T03:26:36.550Z,98704.22
2022-09-20T03:29:17.815Z,98695.75
2022-09-20T03:32:05.675Z,98701.31
2022-09-20T03:34:56.219Z,98696.75
2022-09-20T03:37:48.602Z,98695.28
2022-09-20T03:41:03.503Z,98687.31
2022-09-20T03:43:55.398Z,98687.00
2022-09-20T03:46:29.232Z,98688.66
2022-09-20T03:49:53.785Z,98690.44
2022-09-20T03:53:06.797Z,98686.19
2022-09-20T03:56:19.890Z,98687.00
2022-09-20T03:59:15.633Z,98691.91
2022-09-20T04:02:35.796Z,98698.56
2022-09-20T04:05:14.861Z,98696.16
2022-09-20T04:08:02.755Z,98688.00
2022-09-20T04:11:00.302Z,98690.28
2022-09-20T04:13:39.641Z,98686.69
2022-09-20T04:16:34.178Z,98696.13
2022-09-20T04:19:16.327Z,98688.31
2022-09-20T04:21:57.081Z,98684.41
2022-09-20T04:24:44.189Z,98682.31
2022-09-20T04:27:23.030Z,98687.84
2022-09-20T04:30:00.419Z,98685.88
2022-09-20T04:32:41.213Z,98697.63
2022-09-20T04:35:52.268Z,98700.09
2022-09-20T04:38:24.033Z,98696.50
2022-09-20T04:41:28.116Z,98700.09
2022-09-20T04:44:46.038Z,98701.06
2022-09-20T04:48:10.351Z,98703.34
2022-09-20T04:51:35.233Z,98708.56
2022-09-20T04:55:09.725Z,98715.41
2022-09-20T04:58:19.305Z,98709.88
2022-09-20T05:01:28.314Z,98717.69
2022-09-20T05:05:01.298Z,98707.44
2022-09-20T05:08:42.185Z,98709.88
2022-09-20T05:11:47.071Z,98715.09
2022-09-20T05:15:09.129Z,98727.81
2022-09-20T05:18:11.043Z,98724.22
2022-09-20T05:21:05.742Z,98733.69
2022-09-20T05:24:09.488Z,98730.91
2022-09-20T05:27:02.415Z,98725.69
2022-09-20T05:29:42.102Z,98729.28
2022-09-20T05:32:24.288Z,98726.50
2022-09-20T05:35:06.411Z,98730.91
2022-09-20T05:37:51.514Z,98735.00
2022-09-20T05:40:32.060Z,98734.69
2022-09-20T05:43:13.232Z,98726.69
2022-09-20T05:46:05.096Z,98723.75
2022-09-20T05:48:51.276Z,98738.09
2022-09-20T05:51:57.824Z,98743.81
2022-09-20T05:55:29.375Z,98744.31
2022-09-20T05:58:39.984Z,98752.00
2022-09-20T06:01:16.201Z,98741.22
2022-09-20T06:03:54.616Z,98748.06
2022-09-20T06:06:32.973Z,98743.50
2022-09-20T06:09:38.458Z,98742.53
2022-09-20T06:12:35.803Z,98744.00
2022-09-20T06:15:22.246Z,98740.22
2022-09-20T06:18:04.445Z,98744.31
2022-09-20T06:20:48.346Z,98746.75
2022-09-20T06:23:19.537Z,98750.34
2022-09-20T06:25:56.255Z,98756.22
2022-09-20T06:28:29.738Z,98747.88
2022-09-20T06:30:58.818Z,98754.59
2022-09-20T06:33:29.963Z,98754.09
2022-09-20T06:36:19.871Z,98758.84
2022-09-20T06:39:21.477Z,98760.97
2022-09-20T06:41:51.580Z,98760.63
2022-09-20T06:44:20.259Z,98763.72
2022-09-20T06:46:49.449Z,98767.66
2022-09-20T06:49:18.837Z,98769.25
2022-09-20T06:51:47.847Z,98756.69
2022-09-20T06:54:22.078Z,98754.41
2022-09-20T06:56:53.785Z,98757.50
2022-09-20T06:59:22.402Z,98764.03
2022-09-20T07:01:51.189Z,98768.75
2022-09-20T07:04:19.689Z,98757.19
2022-09-20T07:06:48.950Z,98758.31
2022-09-20T07:09:18.990Z,98763.19
2022-09-20T07:11:48.127Z,98771.72
2022-09-20T07:14:17.002Z,98767.44
2022-09-20T07:16:45.781Z,98769.56
2022-09-20T07:19:16.225Z,98769.06
2022-09-20T07:21:47.216Z,98772.81
2022-09-20T07:24:16.350Z,98776.72
2022-09-20T07:27:04.155Z,98772.63
2022-09-20T07:29:32.753Z,98773.09
2022-09-20T07:32:01.311Z,98763.94
2022-09-20T07:34:32.367Z,98771.44
2022-09-20T07:37:01.030Z,98781.22
2022-09-20T07:39:29.671Z,98769.44
2022-09-20T07:42:00.286Z,98777.91
2022-09-20T07:44:28.837Z,98787.72
2022-09-20T07:47:01.224Z,98784.56
2022-09-20T07:49:31.145Z,98786.34
2022-09-20T07:52:01.385Z,98783.84
2022-09-20T07:54:30.310Z,98790.22
2022-09-20T07:57:01.025Z,98793.94
2022-09-20T07:59:29.582Z,98787.22
2022-09-20T08:02:00.868Z,98793.38
2022-09-20T08:04:29.419Z,98791.06
2022-09-20T08:06:59.228Z,98791.19
2022-09-20T08:09:28.402Z,98789.69
2022-09-20T08:11:57.669Z,98789.34
2022-09-20T08:14:29.232Z,98790.59
2022-09-20T08:17:00.341Z,98782.69
2022-09-20T08:19:28.874Z,98790.50
2022-09-20T08:21:57.632Z,98789.19
2022-09-20T08:24:27.326Z,98785.88
2022-09-20T08:26:55.763Z,98786.81
2022-09-20T08:29:24.227Z,98782.28
2022-09-20T08:31:58.389Z,98787.66
2022-09-20T08:34:27.116Z,98782.69
2022-09-20T08:36:56.661Z,98794.91
2022-09-20T08:42:27.284Z,98794.28
2022-09-20T08:45:01.874Z,98797.66
2022-09-20T08:47:35.862Z,98792.53
2022-09-20T08:50:09.826Z,98794.41
2022-09-20T08:52:42.474Z,98796.31
2022-09-20T08:55:18.776Z,98793.59
2022-09-20T08:57:51.402Z,98791.06
2022-09-20T09:00:23.031Z,98789.56
2022-09-20T09:02:58.276Z,98792.78
2022-09-20T09:05:40.009Z,98785.22
2022-09-20T09:08:16.481Z,98787.09
2022-09-20T09:10:51.803Z,98791.59
2022-09-20T09:13:28.124Z,98797.13
2022-09-20T09:16:01.871Z,98781.63
2022-09-20T09:18:36.587Z,98783.34
2022-09-20T09:21:08.624Z,98779.34
2022-09-20T09:23:46.499Z,98774.91
2022-09-20T09:26:23.726Z,98781.72
2022-09-20T09:29:18.993Z,98787.41
2022-09-20T09:31:50.237Z,98785.84
2022-09-20T09:34:38.853Z,98788.91
2022-09-20T09:37:07.707Z,98786.94
2022-09-20T09:39:38.335Z,98784.38
2022-09-20T09:42:23.868Z,98780.97
2022-09-20T09:44:52.557Z,98781.63
2022-09-20T09:47:28.822Z,98778.25
2022-09-20T09:50:03.897Z,98773.59
2022-09-20T09:52:36.545Z,98772.88
2022-09-20T09:55:07.594Z,98775.13
2022-09-20T09:57:55.876Z,98769.88
2022-09-20T10:00:27.177Z,98767.69
2022-09-20T10:03:27.730Z,98782.25
2022-09-20T10:06:10.785Z,98778.84
2022-09-20T10:08:56.376Z,98767.97
2022-09-20T10:11:43.453Z,98776.47
2022-09-20T10:14:34.167Z,98778.16
2022-09-20T10:17:22.699Z,98772.72
2022-09-20T10:20:22.859Z,98771.94
2022-09-20T10:26:09.329Z,98767.81
2022-09-20T10:28:57.328Z,98763.34
2022-09-20T10:31:45.707Z,98760.78
2022-09-20T10:34:41.673Z,98756.97
2022-09-20T10:37:22.706Z,98755.19
2022-09-20T10:40:09.945Z,98756.28
2022-09-20T10:43:07.468Z,98758.31
2022-09-20T10:48:49.337Z,98756.16
2022-09-20T10:51:36.102Z,98755.75
2022-09-20T10:54:27.048Z,98765.72
2022-09-20T10:57:27.181Z,98756.00
2022-09-20T11:00:09.991Z,98764.13
2022-09-20T11:02:59.403Z,98763.75
2022-09-20T11:05:44.704Z,98767.81
2022-09-20T11:08:20.097Z,98762.97
2022-09-20T11:10:55.205Z,98769.66
2022-09-20T11:13:34.354Z,98769.47
2022-09-20T11:16:14.289Z,98767.44
2022-09-20T11:18:52.262Z,98768.50
2022-09-20T11:21:29.381Z,98772.94
2022-09-20T11:24:06.785Z,98778.00
2022-09-20T11:26:46.154Z,98769.50
2022-09-20T11:29:28.960Z,98769.50
2022-09-20T11:32:13.397Z,98773.94
2022-09-20T11:34:55.827Z,98773.50
2022-09-20T11:37:35.127Z,98767.19
2022-09-20T11:40:17.884Z,98772.69
2022-09-20T11:42:50.489Z,98770.69
2022-09-20T11:45:24.058Z,98767.66
2022-09-20T11:48:04.369Z,98773.16
2022-09-20T11:51:02.307Z,98776.19
2022-09-20T11:53:51.747Z,98774.63
2022-09-20T11:56:25.610Z,98766.31
2022-09-20T11:58:59.151Z,98777.69
2022-09-20T12:01:33.793Z,98771.81
2022-09-20T12:04:31.854Z,98769.41
2022-09-20T12:07:10.467Z,98770.81
2022-09-20T12:09:45.162Z,98766.78
2022-09-20T12:12:39.003Z,98765.16
2022-09-20T12:15:25.615Z,98767.19
2022-09-20T12:18:54.372Z,98767.19
2022-09-20T12:21:23.732Z,98764.38
2022-09-20T12:24:26.318Z,98758.50
2022-09-20T12:26:58.028Z,98761.53
2022-09-20T12:30:19.314Z,98771.88
2022-09-20T12:33:01.201Z,98764.75
2022-09-20T12:36:17.795Z,98763.56
2022-09-20T12:39:22.377Z,98759.28
2022-09-20T12:41:57.285Z,98760.91
2022-09-20T12:44:37.232Z,98766.19
2022-09-20T12:47:18.451Z,98762.31
2022-09-20T12:50:15.815Z,98762.72
2022-09-20T12:53:01.142Z,98764.72
2022-09-20T12:55:56.846Z,98758.88
2022-09-20T12:58:38.138Z,98751.38
2022-09-20T13:01:36.955Z,98760.28
2022-09-20T13:04:55.414Z,98758.44
2022-09-20T13:08:00.984Z,98758.69
2022-09-20T13:10:41.680Z,98763.75
2022-09-20T13:13:33.120Z,98760.69
2022-09-20T13:16:06.665Z,98759.13
2022-09-20T13:18:38.925Z,98745.31
2022-09-20T13:21:09.723Z,98757.06
2022-09-20T13:23:51.529Z,98744.13
2022-09-20T13:26:28.612Z,98747.41
2022-09-20T13:29:00.390Z,98738.09
2022-09-20T13:31:34.334Z,98733.22
2022-09-20T13:34:23.123Z,98725.31
2022-09-20T13:36:56.617Z,98734.25
2022-09-20T13:39:35.192Z,98735.47
2022-09-20T13:42:11.569Z,98734.25
2022-09-20T13:44:41.671Z,98731.22
2022-09-20T13:47:29.012Z,98731.41
2022-09-20T13:50:03.942Z,98730.16
2022-09-20T13:52:34.759Z,98729.97
2022-09-20T13:55:33.308Z,98739.72
2022-09-20T13:58:07.773Z,98739.31
2022-09-20T14:00:39.063Z,98746.63
2022-09-20T14:03:08.647Z,98746.63
2022-09-20T14:05:37.097Z,98754.72
2022-09-20T14:08:07.671Z,98752.09
2022-09-20T14:10:42.999Z,98743.34
2022-09-20T14:13:18.411Z,98744.81
2022-09-20T14:15:49.207Z,98742.16
2022-09-20T14:18:22.427Z,98745.41
2022-09-20T14:20:51.466Z,98745.41
2022-09-20T14:23:25.367Z,98749.25
2022-09-20T14:26:25.189Z,98747.03
2022-09-20T14:28:55.790Z,98746.81
2022-09-20T14:31:30.086Z,98743.16
2022-09-20T14:34:04.112Z,98738.91
2022-09-20T14:36:32.802Z,98734.84
2022-09-20T14:39:06.472Z,98736.88
2022-09-20T14:41:39.495Z,98736.06
2022-09-20T14:44:27.994Z,98737.69
2022-09-20T14:46:56.866Z,98740.72
2022-09-20T14:49:34.604Z,98744.78
2022-09-20T14:52:36.772Z,98726.94
2022-09-20T14:55:30.191Z,98733.03
2022-09-20T14:58:05.833Z,98719.03
2022-09-20T15:00:51.425Z,98725.72
2022-09-20T15:03:28.365Z,98728.97
2022-09-20T15:05:57.097Z,98733.44
2022-09-20T15:08:26.135Z,98726.75
2022-09-20T15:10:55.022Z,98723.06
2022-09-20T15:13:24.050Z,98731.59
2022-09-20T15:15:56.016Z,98726.34
2022-09-20T15:18:28.822Z,98736.91
2022-09-20T15:20:57.790Z,98737.69
2022-09-20T15:23:26.697Z,98733.44
2022-09-20T15:25:57.071Z,98734.84
2022-09-20T15:28:26.872Z,98735.25
2022-09-20T15:30:58.780Z,98737.91
2022-09-20T15:33:31.391Z,98743.16
2022-09-20T15:36:00.225Z,98752.69
2022-09-20T15:38:28.965Z,98746.13
2022-09-20T15:41:01.620Z,98742.69
2022-09-20T15:43:31.298Z,98750.59
2022-09-20T15:46:17.850Z,98745.94
2022-09-20T15:48:46.530Z,98752.44
2022-09-20T15:51:16.464Z,98749.19
2022-09-20T15:53:49.185Z,98749.81
2022-09-20T15:56:21.191Z,98747.38
2022-09-20T15:58:53.997Z,98739.69
2022-09-20T16:01:24.167Z,98743.72
2022-09-20T16:03:53.582Z,98748.19
2022-09-20T16:06:22.680Z,98745.75
2022-09-20T16:08:51.616Z,98751.41
2022-09-20T16:11:23.087Z,98756.28
2022-09-20T16:13:55.501Z,98751.41
2022-09-20T16:16:27.907Z,98749.41
2022-09-20T16:19:14.488Z,98754.66
2022-09-20T16:21:47.015Z,98761.94
2022-09-20T16:24:16.700Z,98758.31
2022-09-20T16:26:48.032Z,98763.34
2022-09-20T16:29:17.042Z,98767.22
2022-09-20T16:31:49.171Z,98764.59
2022-09-20T16:34:20.342Z,98768.44
2022-09-20T16:36:50.989Z,98774.94
2022-09-20T16:39:21.570Z,98776.09
2022-09-20T16:41:51.280Z,98775.50
2022-09-20T16:44:19.968Z,98769.22
2022-09-20T16:46:50.693Z,98776.91
2022-09-20T16:49:19.388Z,98776.91
2022-09-20T16:53:32.032Z,98782.97
2022-09-20T16:56:01.714Z,98781.75
2022-09-20T16:58:31.581Z,98784.97
2022-09-20T17:01:06.201Z,98784.78
2022-09-20T17:03:35.523Z,98783.13
2022-09-20T17:06:05.497Z,98793.06
2022-09-20T17:08:40.145Z,98790.19
2022-09-20T17:11:11.129Z,98788.34
2022-09-20T17:13:40.903Z,98794.59
2022-09-20T17:16:14.114Z,98795.38
2022-09-20T17:18:44.111Z,98799.81
2022-09-20T17:21:15.938Z,98803.25
2022-09-20T17:23:50.962Z,98802.41
2022-09-20T17:26:25.037Z,98807.06
2022-09-20T17:28:56.466Z,98802.59
2022-09-20T17:31:29.367Z,98811.88
2022-09-20T17:34:00.277Z,98810.66
2022-09-20T17:36:31.936Z,98803.34
2022-09-20T17:39:04.790Z,98814.44
2022-09-20T17:41:36.706Z,98812.03
2022-09-20T17:44:08.389Z,98810.19
2022-09-20T17:46:40.061Z,98818.47
2022-09-20T17:49:12.341Z,98811.72
2022-09-20T17:51:44.088Z,98824.44
2022-09-20T17:54:15.467Z,98826.19
2022-09-20T17:56:46.454Z,98823.69
2022-09-20T17:59:16.844Z,98826.28
2022-09-20T18:01:47.698Z,98827.47
2022-09-20T18:04:16.722Z,98829.84
2022-09-20T18:06:50.410Z,98828.84
2022-09-20T18:09:24.248Z,98830.66
2022-09-20T18:11:55.262Z,98837.94
2022-09-20T18:14:27.716Z,98832.41
2022-09-20T18:17:00.973Z,98841.69
2022-09-20T18:19:33.231Z,98841.50
2022-09-20T18:22:02.637Z,98839.31
2022-09-20T18:24:33.352Z,98842.31
2022-09-20T18:27:01.951Z,98845.34
2022-09-20T18:29:36.764Z,98842.88
2022-09-20T18:32:08.531Z,98847.31
2022-09-20T18:34:37.072Z,98850.16
2022-09-20T18:37:13.826Z,98849.06
2022-09-20T18:39:49.669Z,98852.91
2022-09-20T18:42:18.154Z,98859.72
2022-09-20T18:44:50.540Z,98851.19
2022-09-20T18:47:19.305Z,98850.75
2022-09-20T18:49:47.898Z,98856.41
2022-09-20T18:52:18.125Z,98851.06
2022-09-20T18:54:48.330Z,98857.69
2022-09-20T18:57:17.795Z,98862.50
2022-09-20T18:59:54.690Z,98864.97
2022-09-20T19:02:57.829Z,98865.56
2022-09-20T19:05:37.163Z,98870.22
2022-09-20T19:08:30.407Z,98872.84
2022-09-20T19:11:12.086Z,98878.47
2022-09-20T19:13:49.356Z,98873.94
2022-09-20T19:16:22.301Z,98874.69
2022-09-20T19:19:20.327Z,98880.31
2022-09-20T19:22:04.167Z,98890.72
2022-09-20T19:25:21.962Z,98883.03
2022-09-20T19:27:53.080Z,98886.31
2022-09-20T19:30:23.408Z,98889.91
2022-09-20T19:32:54.026Z,98890.13
2022-09-20T19:35:34.271Z,98894.88
2022-09-20T19:38:15.671Z,98903.06
2022-09-20T19:40:54.834Z,98902.59
2022-09-20T19:43:59.673Z,98904.56
2022-09-20T19:47:01.630Z,98905.03
2022-09-20T19:49:48.606Z,98914.91
2022-09-20T19:52:20.417Z,98917.59
2022-09-20T19:54:50.623Z,98920.41
2022-09-20T19:57:23.942Z,98923.22
2022-09-20T19:59:56.022Z,98922.03
2022-09-20T20:02:25.654Z,98927.13
2022-09-20T20:04:54.839Z,98924.13
2022-09-20T20:07:36.172Z,98930.19
2022-09-20T20:10:19.655Z,98928.38
2022-09-20T20:12:59.658Z,98925.75
2022-09-20T20:15:45.737Z,98921.88
2022-09-20T20:18:26.362Z,98928.47
2022-09-20T20:21:00.097Z,98926.81
2022-09-20T20:24:12.398Z,98927.03
2022-09-20T20:26:41.016Z,98930.53
2022-09-20T20:29:14.259Z,98931.59
2022-09-20T20:31:44.764Z,98931.69
2022-09-20T20:34:19.855Z,98935.19
2022-09-20T20:36:49.567Z,98933.19
2022-09-20T20:39:18.501Z,98936.00
2022-09-20T20:41:52.454Z,98939.97
2022-09-20T20:44:22.195Z,98946.38
2022-09-20T20:46:53.030Z,98947.06
2022-09-20T20:49:22.016Z,98958.28
2022-09-20T20:51:51.026Z,98946.97
2022-09-20T20:54:20.988Z,98947.56
2022-09-20T20:56:49.770Z,98950.41
2022-09-20T20:59:21.760Z,98954.38
2022-09-20T21:01:53.065Z,98954.53
2022-09-20T21:04:22.121Z,98955.69
2022-09-20T21:06:51.145Z,98956.31
2022-09-20T21:09:20.563Z,98957.34
2022-09-20T21:11:51.637Z,98964.53
2022-09-20T21:14:20.476Z,98965.59
2022-09-20T21:16:50.380Z,98964.28
2022-09-20T21:19:23.255Z,98969.25
2022-09-20T21:21:51.870Z,98965.97
2022-09-20T21:24:20.694Z,98972.88
2022-09-20T21:26:49.857Z,98978.63
2022-09-20T21:29:20.421Z,98968.47
2022-09-20T21:31:50.072Z,98969.16
2022-09-20T21:34:23.034Z,98973.28
2022-09-20T21:36:51.720Z,98970.47
2022-09-20T21:39:22.589Z,98971.28
2022-09-20T21:41:52.589Z,98976.19
2022-09-20T21:44:21.071Z,98974.25
2022-09-20T21:46:50.187Z,98980.81
2022-09-20T21:49:20.350Z,98973.94
2022-09-20T21:51:52.739Z,98973.78
2022-09-20T21:54:22.114Z,98980.06
2022-09-20T21:56:53.810Z,98974.53
2022-09-20T21:59:22.940Z,98975.50
2022-09-20T22:01:55.967Z,98974.00
2022-09-20T22:04:27.493Z,98978.13
2022-09-20T22:06:56.101Z,98983.84
2022-09-20T22:09:25.089Z,98985.31
2022-09-20T22:11:53.772Z,98978.94
2022-09-20T22:14:22.386Z,98983.84
2022-09-20T22:16:51.896Z,98983.56
2022-09-20T22:19:22.406Z,98981.56
2022-09-20T22:21:53.323Z,98980.59
2022-09-20T22:24:22.321Z,98984.38
2022-09-20T22:26:53.761Z,98985.69
2022-09-20T22:29:24.071Z,98982.44
2022-09-20T22:31:52.721Z,98980.78
2022-09-20T22:34:24.374Z,98983.56
2022-09-20T22:36:56.415Z,98986.03
2022-09-20T22:39:24.963Z,98986.84
2022-09-20T22:41:53.520Z,98981.16
2022-09-20T22:44:22.150Z,98984.59
2022-09-20T22:46:51.616Z,98993.25
2022-09-20T22:49:20.867Z,98990.16
2022-09-20T22:51:52.424Z,98992.28
2022-09-20T22:54:24.680Z,98986.88
2022-09-20T22:56:55.284Z,98990.63
2022-09-20T22:59:24.359Z,98985.72
2022-09-20T23:01:52.794Z,98991.78
2022-09-20T23:04:23.609Z,98990.81
2022-09-20T23:06:56.649Z,98989.81
2022-09-20T23:09:28.697Z,98984.25
2022-09-20T23:11:57.640Z,98981.47
2022-09-20T23:14:26.076Z,98986.22
2022-09-20T23:16:54.625Z,98987.38
2022-09-20T23:19:23.957Z,98979.50
2022-09-20T23:21:52.541Z,98986.19
2022-09-20T23:24:21.797Z,98988.47
2022-09-20T23:26:52.137Z,98986.53
2022-09-20T23:29:21.255Z,98987.50
2022-09-20T23:31:50.189Z,98987.47
2022-09-20T23:34:19.297Z,98992.56
2022-09-20T23:36:48.582Z,98980.75
2022-09-20T23:39:17.996Z,98987.09
2022-09-20T23:41:50.793Z,98986.28
2022-09-20T23:44:21.736Z,98991.16
2022-09-20T23:46:50.557Z,98990.84
2022-09-20T23:49:19.834Z,98990.34
2022-09-20T23:51:48.544Z,98984.94
2022-09-20T23:54:17.075Z,98994.41
2022-09-20T23:56:46.351Z,98997.47
2022-09-20T23:59:15.337Z,98991.97
